createdAt,value
2018-04-16T00:00:19.536Z,51.37
2018-04-16T00:01:28.643Z,51.45
2018-04-16T00:02:37.477Z,50.68
2018-04-16T00:03:46.865Z,50.01
2018-04-16T00:04:55.748Z,50.4
2018-04-16T00:06:04.582Z,50.11
2018-04-16T00:07:13.434Z,49.63
2018-04-16T00:08:22.252Z,49.63
2018-04-16T00:09:31.367Z,49.35
2018-04-16T00:10:40.774Z,49.54
2018-04-16T00:11:49.612Z,49.35
2018-04-16T00:12:58.441Z,49.35
2018-04-16T00:14:07.273Z,49.37
2018-04-16T00:15:16.106Z,49.16
2018-04-16T00:16:25.090Z,49.06
2018-04-16T00:17:33.923Z,48.8
2018-04-16T00:18:42.764Z,48.78
2018-04-16T00:19:51.591Z,48.68
2018-04-16T00:21:00.421Z,48.49
2018-04-16T00:22:09.250Z,48.3
2018-04-16T00:23:18.357Z,48.49
2018-04-16T00:24:27.188Z,48.78
2018-04-16T00:25:36.023Z,49.06
2018-04-16T00:26:44.857Z,48.97
2018-04-16T00:27:53.689Z,49.16
2018-04-16T00:29:02.524Z,48.49
2018-04-16T00:30:11.909Z,48.68
2018-04-16T00:31:20.743Z,48.11
2018-04-16T00:32:29.853Z,48.21
2018-04-16T00:33:38.835Z,47.82
2018-04-16T00:34:47.667Z,47.92
2018-04-16T00:35:56.498Z,47.85
2018-04-16T00:37:05.326Z,48.02
2018-04-16T00:38:14.163Z,47.63
2018-04-16T00:39:23.044Z,47.06
2018-04-16T00:40:32.155Z,46.78
2018-04-16T00:41:40.988Z,46.68
2018-04-16T00:42:49.818Z,46.3
2018-04-16T00:43:58.649Z,46.58
2018-04-16T00:45:07.767Z,46.68
2018-04-16T00:46:16.602Z,46.3
2018-04-16T00:47:25.708Z,45.92
2018-04-16T00:48:34.540Z,45.63
2018-04-16T00:49:43.378Z,44.78
2018-04-16T00:50:52.358Z,44.3
2018-04-16T00:52:01.192Z,44.2
2018-04-16T00:53:10.090Z,44.01
2018-04-16T00:54:19.477Z,43.35
2018-04-16T00:55:28.311Z,42.77
2018-04-16T00:56:37.144Z,42.87
2018-04-16T00:57:46.248Z,42.2
2018-04-16T00:58:55.081Z,41.63
2018-04-16T01:00:04.193Z,41.72
2018-04-16T01:01:13.021Z,41.82
2018-04-16T01:02:21.860Z,41.72
2018-04-16T01:03:30.686Z,41.53
2018-04-16T01:04:39.520Z,41.72
2018-04-16T01:05:48.351Z,41.44
2018-04-16T01:06:57.184Z,41.72
2018-04-16T01:08:06.172Z,41.82
2018-04-16T01:09:15.276Z,42.01
2018-04-16T01:10:24.110Z,41.44
2018-04-16T01:11:32.943Z,41.72
2018-04-16T01:12:42.331Z,41.72
2018-04-16T01:13:51.208Z,42.2
2018-04-16T01:15:00.313Z,42.4
2018-04-16T01:16:09.151Z,42.3
2018-04-16T01:17:18.257Z,42.77
2018-04-16T01:18:27.366Z,42.87
2018-04-16T01:19:36.449Z,42.49
2018-04-16T01:20:45.559Z,43.35
2018-04-16T01:21:54.941Z,43.54
2018-04-16T01:23:03.775Z,44.01
2018-04-16T01:24:12.608Z,44.11
2018-04-16T01:25:21.596Z,43.63
2018-04-16T01:26:30.435Z,43.54
2018-04-16T01:27:39.541Z,44.11
2018-04-16T01:28:48.372Z,44.39
2018-04-16T01:29:57.207Z,43.82
2018-04-16T01:31:06.565Z,43.54
2018-04-16T01:32:15.397Z,43.54
2018-04-16T01:33:24.228Z,43.16
2018-04-16T01:34:33.343Z,43.35
2018-04-16T01:35:42.177Z,44.11
2018-04-16T01:36:51.060Z,44.01
2018-04-16T01:37:59.895Z,44.3
2018-04-16T01:39:08.729Z,43.73
2018-04-16T01:40:17.565Z,43.82
2018-04-16T01:41:26.407Z,43.91
2018-04-16T01:42:35.512Z,44.3
2018-04-16T01:43:44.344Z,44.3
2018-04-16T01:44:53.726Z,45.06
2018-04-16T01:46:02.557Z,44.3
2018-04-16T01:47:11.669Z,44.49
2018-04-16T01:48:20.651Z,44.96
2018-04-16T01:49:29.484Z,45.06
2018-04-16T01:50:38.317Z,44.87
2018-04-16T01:51:47.150Z,44.96
2018-04-16T01:52:55.988Z,44.96
2018-04-16T01:54:04.818Z,44.87
2018-04-16T01:55:13.649Z,44.49
2018-04-16T01:56:22.485Z,44.68
2018-04-16T01:57:31.317Z,44.49
2018-04-16T01:58:40.149Z,44.39
2018-04-16T01:59:48.983Z,44.87
2018-04-16T02:00:57.817Z,44.2
2018-04-16T02:02:06.649Z,44.39
2018-04-16T02:03:15.485Z,44.49
2018-04-16T02:04:24.588Z,44.49
2018-04-16T02:05:33.521Z,44.96
2018-04-16T02:06:42.360Z,44.49
2018-04-16T02:07:51.191Z,44.3
2018-04-16T02:09:00.023Z,44.39
2018-04-16T02:10:08.856Z,44.3
2018-04-16T02:11:18.064Z,44.3
2018-04-16T02:12:26.900Z,44.59
2018-04-16T02:13:35.749Z,44.96
2018-04-16T02:14:44.581Z,45.06
2018-04-16T02:15:53.967Z,44.68
2018-04-16T02:17:03.079Z,45.35
2018-04-16T02:18:11.912Z,45.15
2018-04-16T02:19:20.745Z,45.35
2018-04-16T02:20:29.867Z,45.15
2018-04-16T02:21:38.962Z,45.35
2018-04-16T02:22:48.180Z,44.96
2018-04-16T02:23:57.014Z,45.23
2018-04-16T02:25:06.128Z,45.32
2018-04-16T02:26:15.235Z,45.23
2018-04-16T02:27:24.065Z,45.23
2018-04-16T02:28:32.995Z,45.14
2018-04-16T02:29:41.828Z,45.23
2018-04-16T02:30:50.665Z,44.94
2018-04-16T02:32:00.055Z,45.32
2018-04-16T02:33:09.167Z,45.42
2018-04-16T02:34:19.140Z,45.7
2018-04-16T02:35:28.246Z,45.04
2018-04-16T02:36:37.083Z,45.23
2018-04-16T02:37:46.467Z,45.7
2018-04-16T02:38:55.581Z,45.51
2018-04-16T02:40:04.619Z,45.51
2018-04-16T02:41:13.461Z,45.04
2018-04-16T02:42:22.843Z,45.04
2018-04-16T02:43:31.949Z,44.94
2018-04-16T02:44:41.059Z,45.04
2018-04-16T02:45:50.771Z,45.04
2018-04-16T02:46:59.606Z,44.18
2018-04-16T02:48:08.722Z,45.04
2018-04-16T02:49:17.841Z,44.66
2018-04-16T02:50:26.676Z,44.78
2018-04-16T02:51:35.558Z,44.56
2018-04-16T02:52:44.667Z,44.46
2018-04-16T02:53:53.785Z,44.46
2018-04-16T02:55:02.626Z,44.49
2018-04-16T02:56:11.466Z,44.56
2018-04-16T02:57:20.778Z,44.3
2018-04-16T02:58:29.613Z,44.59
2018-04-16T02:59:38.722Z,44.46
2018-04-16T03:00:48.376Z,44.37
2018-04-16T03:01:57.211Z,44.56
2018-04-16T03:03:06.471Z,44.27
2018-04-16T03:04:15.306Z,44.18
2018-04-16T03:05:24.414Z,44.27
2018-04-16T03:06:33.820Z,44.46
2018-04-16T03:07:42.649Z,44.46
2018-04-16T03:08:52.307Z,43.99
2018-04-16T03:10:01.421Z,43.99
2018-04-16T03:11:10.248Z,43.91
2018-04-16T03:12:19.082Z,43.51
2018-04-16T03:13:27.915Z,43.61
2018-04-16T03:14:36.898Z,43.32
2018-04-16T03:15:45.734Z,42.85
2018-04-16T03:16:54.566Z,42.08
2018-04-16T03:18:03.420Z,41.33
2018-04-16T03:19:12.249Z,41.13
2018-04-16T03:20:21.385Z,40.37
2018-04-16T03:21:30.216Z,40.28
2018-04-16T03:22:39.047Z,39.8
2018-04-16T03:23:47.886Z,40.09
2018-04-16T03:24:56.990Z,40.09
2018-04-16T03:26:06.398Z,40.47
2018-04-16T03:27:15.232Z,40.47
2018-04-16T03:28:24.336Z,40.75
2018-04-16T03:29:33.171Z,40.47
2018-04-16T03:30:42.002Z,40.66
2018-04-16T03:31:51.388Z,40.56
2018-04-16T03:33:00.503Z,40.75
2018-04-16T03:34:09.338Z,40.56
2018-04-16T03:35:18.167Z,40.75
2018-04-16T03:36:27.008Z,41.13
2018-04-16T03:37:36.113Z,41.33
2018-04-16T03:38:45.220Z,41.23
2018-04-16T03:39:54.051Z,40.75
2018-04-16T03:41:02.983Z,40.75
2018-04-16T03:42:11.816Z,41.23
2018-04-16T03:43:20.704Z,41.13
2018-04-16T03:44:30.083Z,41.52
2018-04-16T03:45:38.924Z,41.8
2018-04-16T03:46:48.092Z,41.42
2018-04-16T03:47:57.482Z,41.13
2018-04-16T03:49:06.616Z,41.71
2018-04-16T03:50:15.726Z,41.8
2018-04-16T03:51:24.570Z,42.08
2018-04-16T03:52:33.397Z,41.71
2018-04-16T03:53:42.229Z,42.18
2018-04-16T03:54:51.160Z,42.18
2018-04-16T03:56:00.548Z,42.18
2018-04-16T03:57:09.659Z,42.28
2018-04-16T03:58:18.499Z,42.18
2018-04-16T03:59:27.605Z,42.47
2018-04-16T04:00:36.649Z,42.47
2018-04-16T04:01:45.483Z,42.47
2018-04-16T04:02:54.316Z,41.89
2018-04-16T04:04:03.424Z,41.42
2018-04-16T04:05:12.256Z,40.75
2018-04-16T04:06:21.295Z,40.75
2018-04-16T04:07:30.127Z,40.66
2018-04-16T04:08:38.960Z,40.75
2018-04-16T04:09:47.794Z,40.85
2018-04-16T04:10:56.904Z,41.23
2018-04-16T04:12:05.888Z,40.75
2018-04-16T04:13:14.720Z,41.04
2018-04-16T04:14:23.563Z,41.42
2018-04-16T04:15:32.682Z,41.23
2018-04-16T04:16:41.512Z,41.8
2018-04-16T04:17:50.921Z,41.89
2018-04-16T04:18:59.752Z,41.8
2018-04-16T04:20:08.861Z,41.89
2018-04-16T04:21:17.695Z,41.71
2018-04-16T04:22:26.527Z,41.71
2018-04-16T04:23:35.361Z,41.89
2018-04-16T04:24:44.192Z,41.71
2018-04-16T04:25:53.026Z,40.85
2018-04-16T04:27:01.861Z,40.47
2018-04-16T04:28:11.062Z,40.47
2018-04-16T04:29:20.168Z,40.28
2018-04-16T04:30:28.999Z,39.8
2018-04-16T04:31:38.114Z,39.61
2018-04-16T04:32:46.946Z,39.32
2018-04-16T04:33:55.786Z,39.51
2018-04-16T04:35:04.639Z,39.61
2018-04-16T04:36:13.466Z,39.7
2018-04-16T04:37:22.579Z,39.51
2018-04-16T04:38:31.408Z,39.51
2018-04-16T04:39:40.239Z,39.32
2018-04-16T04:40:49.344Z,39.04
2018-04-16T04:41:58.175Z,38.37
2018-04-16T04:43:07.289Z,38.09
2018-04-16T04:44:16.119Z,37.99
2018-04-16T04:45:25.226Z,38.09
2018-04-16T04:46:34.060Z,37.9
2018-04-16T04:47:42.892Z,37.8
2018-04-16T04:48:51.724Z,37.32
2018-04-16T04:50:00.605Z,36.57
2018-04-16T04:51:09.732Z,35.52
2018-04-16T04:52:18.561Z,34.18
2018-04-16T04:53:27.393Z,33.42
2018-04-16T04:54:36.226Z,32.37
2018-04-16T04:55:45.061Z,31.42
2018-04-16T04:56:53.893Z,31.42
2018-04-16T04:58:02.742Z,31.42
2018-04-16T04:59:11.570Z,31.8
2018-04-16T05:00:20.410Z,31.71
2018-04-16T05:01:29.243Z,31.61
2018-04-16T05:02:38.077Z,31.42
2018-04-16T05:03:47.186Z,31.71
2018-04-16T05:04:56.017Z,31.8
2018-04-16T05:06:05.124Z,31.61
2018-04-16T05:07:13.957Z,31.42
2018-04-16T05:08:22.791Z,31.42
2018-04-16T05:09:31.626Z,31.71
2018-04-16T05:10:40.461Z,31.42
2018-04-16T05:11:49.403Z,31.71
2018-04-16T05:12:58.237Z,31.42
2018-04-16T05:14:07.069Z,31.13
2018-04-16T05:15:16.179Z,31.04
2018-04-16T05:16:25.288Z,31.13
2018-04-16T05:17:34.237Z,30.87
2018-04-16T05:18:43.353Z,30.85
2018-04-16T05:19:52.184Z,30.76
2018-04-16T05:21:01.015Z,30.94
2018-04-16T05:22:09.848Z,30.96
2018-04-16T05:23:18.781Z,30.77
2018-04-16T05:24:27.614Z,30.58
2018-04-16T05:25:36.449Z,30.49
2018-04-16T05:26:45.560Z,30.58
2018-04-16T05:27:54.676Z,30.58
2018-04-16T05:29:03.710Z,30.49
2018-04-16T05:30:12.543Z,30.58
2018-04-16T05:31:21.379Z,30.2
2018-04-16T05:32:30.223Z,30.29
2018-04-16T05:33:39.048Z,30.1
2018-04-16T05:34:48.257Z,30.2
2018-04-16T05:35:57.093Z,30
2018-04-16T05:37:05.920Z,30.29
2018-04-16T05:38:14.752Z,30.2
2018-04-16T05:39:23.590Z,30.2
2018-04-16T05:40:33.552Z,30.2
2018-04-16T05:41:42.386Z,30.68
2018-04-16T05:42:51.221Z,30.77
2018-04-16T05:44:00.065Z,30.87
2018-04-16T05:45:08.900Z,30.77
2018-04-16T05:46:18.308Z,30.77
2018-04-16T05:47:27.412Z,30.77
2018-04-16T05:48:36.252Z,30.77
2018-04-16T05:49:45.092Z,30.68
2018-04-16T05:50:54.202Z,30.58
2018-04-16T05:52:03.338Z,30.39
2018-04-16T05:53:12.171Z,30.39
2018-04-16T05:54:21.278Z,30.39
2018-04-16T05:55:30.111Z,30.49
2018-04-16T05:56:38.947Z,30.58
2018-04-16T05:57:48.205Z,30.68
2018-04-16T05:58:57.038Z,30.68
2018-04-16T06:00:05.874Z,30.68
2018-04-16T06:01:14.709Z,30.49
2018-04-16T06:02:23.543Z,30.29
2018-04-16T06:03:32.856Z,30.29
2018-04-16T06:04:42.245Z,30.29
2018-04-16T06:05:51.079Z,30.2
2018-04-16T06:06:59.912Z,29.91
2018-04-16T06:08:08.747Z,29.53
2018-04-16T06:09:17.629Z,29.82
2018-04-16T06:10:26.459Z,30.2
2018-04-16T06:11:35.569Z,30.1
2018-04-16T06:12:44.401Z,30.12
2018-04-16T06:13:53.235Z,29.83
2018-04-16T06:15:02.066Z,29.74
2018-04-16T06:16:10.898Z,29.93
2018-04-16T06:17:19.762Z,29.74
2018-04-16T06:18:28.566Z,29.93
2018-04-16T06:19:37.675Z,30.12
2018-04-16T06:20:46.809Z,30.12
2018-04-16T06:21:55.642Z,30.31
2018-04-16T06:23:04.476Z,30.5
2018-04-16T06:24:13.316Z,30.4
2018-04-16T06:25:22.252Z,30.31
2018-04-16T06:26:31.764Z,30.5
2018-04-16T06:27:40.595Z,30.21
2018-04-16T06:28:49.435Z,30.21
2018-04-16T06:29:58.261Z,30.4
2018-04-16T06:31:07.101Z,30.4
2018-04-16T06:32:16.036Z,30.4
2018-04-16T06:33:25.147Z,30.21
2018-04-16T06:34:33.982Z,30.69
2018-04-16T06:35:42.816Z,30.5
2018-04-16T06:36:51.674Z,30.6
2018-04-16T06:38:00.898Z,30.88
2018-04-16T06:39:10.005Z,30.88
2018-04-16T06:40:18.837Z,30.79
2018-04-16T06:41:27.671Z,30.6
2018-04-16T06:42:36.505Z,30.4
2018-04-16T06:43:45.340Z,30.6
2018-04-16T06:44:54.176Z,30.5
2018-04-16T06:46:03.014Z,30.69
2018-04-16T06:47:12.128Z,30.79
2018-04-16T06:48:20.961Z,30.79
2018-04-16T06:49:29.845Z,30.79
2018-04-16T06:50:38.682Z,30.79
2018-04-16T06:51:47.518Z,30.98
2018-04-16T06:52:56.352Z,30.79
2018-04-16T06:54:05.188Z,30.98
2018-04-16T06:55:14.072Z,31.16
2018-04-16T06:56:23.183Z,30.88
2018-04-16T06:57:32.027Z,30.69
2018-04-16T06:58:41.134Z,30.4
2018-04-16T06:59:50.530Z,30.31
2018-04-16T07:01:00.237Z,29.93
2018-04-16T07:02:09.969Z,30.12
2018-04-16T07:03:19.391Z,30.31
2018-04-16T07:04:29.372Z,30.02
2018-04-16T07:05:38.501Z,30.12
2018-04-16T07:06:47.918Z,30.12
2018-04-16T07:07:57.312Z,30.21
2018-04-16T07:09:06.435Z,29.93
2018-04-16T07:10:16.491Z,29.56
2018-04-16T07:11:25.325Z,29.85
2018-04-16T07:12:34.773Z,30.71
2018-04-16T07:13:43.892Z,30.61
2018-04-16T07:14:53.003Z,30.32
2018-04-16T07:16:02.248Z,30.42
2018-04-16T07:17:11.048Z,30.13
2018-04-16T07:18:19.884Z,30.9
2018-04-16T07:19:28.719Z,30.99
2018-04-16T07:20:37.856Z,30.8
2018-04-16T07:21:46.693Z,30.42
2018-04-16T07:22:55.528Z,30.61
2018-04-16T07:24:04.523Z,31.09
2018-04-16T07:25:13.923Z,31.56
2018-04-16T07:26:22.756Z,31.18
2018-04-16T07:27:31.870Z,31.18
2018-04-16T07:28:41.273Z,31.18
2018-04-16T07:29:50.732Z,31.56
2018-04-16T07:30:59.573Z,32.52
2018-04-16T07:32:08.681Z,32.81
2018-04-16T07:33:17.516Z,33
2018-04-16T07:34:26.623Z,32.92
2018-04-16T07:35:35.609Z,33.11
2018-04-16T07:36:44.722Z,32.61
2018-04-16T07:37:53.838Z,32.63
2018-04-16T07:39:02.953Z,32.82
2018-04-16T07:40:12.072Z,33.11
2018-04-16T07:41:20.962Z,32.92
2018-04-16T07:42:29.795Z,33.2
2018-04-16T07:43:38.628Z,33.78
2018-04-16T07:44:47.739Z,33.97
2018-04-16T07:45:56.849Z,34.06
2018-04-16T07:47:06.061Z,35.21
2018-04-16T07:48:14.893Z,35.11
2018-04-16T07:49:23.728Z,35.68
2018-04-16T07:50:32.566Z,35.97
2018-04-16T07:51:41.403Z,35.59
2018-04-16T07:52:50.806Z,35.78
2018-04-16T07:53:59.641Z,35.49
2018-04-16T07:55:08.476Z,35.97
2018-04-16T07:56:17.589Z,37.12
2018-04-16T07:57:26.977Z,36.66
2018-04-16T07:58:36.238Z,37.23
2018-04-16T07:59:45.074Z,37.13
2018-04-16T08:00:53.909Z,37.9
2018-04-16T08:02:02.748Z,37.23
2018-04-16T08:03:11.584Z,37.42
2018-04-16T08:04:20.694Z,40.28
2018-04-16T08:05:29.527Z,38.95
2018-04-16T08:06:38.670Z,38.28
2018-04-16T08:07:47.471Z,39.23
2018-04-16T08:08:56.306Z,39.42
2018-04-16T08:10:05.205Z,40.57
2018-04-16T08:11:14.029Z,40.57
2018-04-16T08:12:23.145Z,40.47
2018-04-16T08:13:31.981Z,40.86
2018-04-16T08:14:40.820Z,42.86
2018-04-16T08:15:49.852Z,44.02
2018-04-16T08:16:58.691Z,49.57
2018-04-16T08:18:07.528Z,51.38
2018-04-16T08:19:16.405Z,51.95
2018-04-16T08:20:25.861Z,49.66
2018-04-16T08:21:34.748Z,49.47
2018-04-16T08:22:43.584Z,50.62
2018-04-16T08:23:52.418Z,50.62
2018-04-16T08:25:01.272Z,52.24
2018-04-16T08:26:10.371Z,52.34
2018-04-16T08:27:19.633Z,51.48
2018-04-16T08:28:28.468Z,52.62
2018-04-16T08:29:37.309Z,49.76
2018-04-16T08:30:46.470Z,52.72
2018-04-16T08:31:55.306Z,51.95
2018-04-16T08:33:04.471Z,51.57
2018-04-16T08:34:13.310Z,52.84
2018-04-16T08:35:22.709Z,53.61
2018-04-16T08:36:31.541Z,54.56
2018-04-16T08:37:40.377Z,55.04
2018-04-16T08:38:49.310Z,61.92
2018-04-16T08:39:58.146Z,59.63
2018-04-16T08:41:06.982Z,61.25
2018-04-16T08:42:15.825Z,56.28
2018-04-16T08:43:24.656Z,59.63
2018-04-16T08:44:33.818Z,57.71
2018-04-16T08:45:43.211Z,57.71
2018-04-16T08:46:52.045Z,55.52
2018-04-16T08:48:00.896Z,57.24
2018-04-16T08:49:09.728Z,56.38
2018-04-16T08:50:18.893Z,54.59
2018-04-16T08:51:28.003Z,58.12
2018-04-16T08:52:36.869Z,58.61
2018-04-16T08:53:46.037Z,56.79
2018-04-16T08:54:54.873Z,56.4
2018-04-16T08:56:03.711Z,55.26
2018-04-16T08:57:12.822Z,57.17
2018-04-16T08:58:21.658Z,58.89
2018-04-16T08:59:30.492Z,54.88
2018-04-16T09:00:39.380Z,59.27
2018-04-16T09:01:48.488Z,59.27
2018-04-16T09:02:57.605Z,56.79
2018-04-16T09:04:06.440Z,57.17
2018-04-16T09:05:15.553Z,60.71
2018-04-16T09:06:24.668Z,58.22
2018-04-16T09:07:33.649Z,56.6
2018-04-16T09:08:42.766Z,55.96
2018-04-16T09:09:51.895Z,56.15
2018-04-16T09:11:00.730Z,54.8
2018-04-16T09:12:10.129Z,61.12
2018-04-16T09:13:19.240Z,61.6
2018-04-16T09:14:28.352Z,58.92
2018-04-16T09:15:37.189Z,59.69
2018-04-16T09:16:46.024Z,58.06
2018-04-16T09:17:54.860Z,59.01
2018-04-16T09:19:03.898Z,59.49
2018-04-16T09:20:13.017Z,57.58
2018-04-16T09:21:21.852Z,62.77
2018-04-16T09:22:30.973Z,68.42
2018-04-16T09:23:39.810Z,73.94
2018-04-16T09:24:48.846Z,74.74
2018-04-16T09:25:57.684Z,74.74
2018-04-16T09:27:06.793Z,66.61
2018-04-16T09:28:15.630Z,69.09
2018-04-16T09:29:24.468Z,68.23
2018-04-16T09:30:33.455Z,75.31
2018-04-16T09:31:42.291Z,76.94
2018-04-16T09:32:51.131Z,80.14
2018-04-16T09:33:59.966Z,74.2
2018-04-16T09:35:08.803Z,80.9
2018-04-16T09:36:17.641Z,81.29
2018-04-16T09:37:26.476Z,83.59
2018-04-16T09:38:35.316Z,83.01
2018-04-16T09:39:44.155Z,83.11
2018-04-16T09:40:53.268Z,82.06
2018-04-16T09:42:02.103Z,81.2
2018-04-16T09:43:10.944Z,79.47
2018-04-16T09:44:20.058Z,81.29
2018-04-16T09:45:28.893Z,85.31
2018-04-16T09:46:37.730Z,86.79
2018-04-16T09:47:46.617Z,86.6
2018-04-16T09:48:55.454Z,86.98
2018-04-16T09:50:04.292Z,87.55
2018-04-16T09:51:13.404Z,88.65
2018-04-16T09:52:22.240Z,88.27
2018-04-16T09:53:31.657Z,89.42
2018-04-16T09:54:40.495Z,89.9
2018-04-16T09:55:49.365Z,89.61
2018-04-16T09:56:58.172Z,89.71
2018-04-16T09:58:07.008Z,90.28
2018-04-16T09:59:15.949Z,90.47
2018-04-16T10:00:24.789Z,91.63
2018-04-16T10:01:33.628Z,90.52
2018-04-16T10:02:43.022Z,91.63
2018-04-16T10:03:51.866Z,90.61
2018-04-16T10:05:00.850Z,90.61
2018-04-16T10:06:09.696Z,91.38
2018-04-16T10:07:18.531Z,90.71
2018-04-16T10:08:27.367Z,92.39
2018-04-16T10:09:36.209Z,92.39
2018-04-16T10:10:45.045Z,92.44
2018-04-16T10:11:53.880Z,91.72
2018-04-16T10:13:02.990Z,88.65
2018-04-16T10:14:11.830Z,89.22
2018-04-16T10:15:20.670Z,88.93
2018-04-16T10:16:29.809Z,91.72
2018-04-16T10:17:38.648Z,92.29
2018-04-16T10:18:47.488Z,92.58
2018-04-16T10:19:56.886Z,87.88
2018-04-16T10:21:05.735Z,89.22
2018-04-16T10:22:14.625Z,90.28
2018-04-16T10:23:23.463Z,92.96
2018-04-16T10:24:32.306Z,91.47
2018-04-16T10:25:41.139Z,93.49
2018-04-16T10:26:49.979Z,92.91
2018-04-16T10:27:58.919Z,92.72
2018-04-16T10:29:07.757Z,93.39
2018-04-16T10:30:16.597Z,93.68
2018-04-16T10:31:25.438Z,93.97
2018-04-16T10:32:34.280Z,92.72
2018-04-16T10:33:43.318Z,90.42
2018-04-16T10:34:52.158Z,90.13
2018-04-16T10:36:01.275Z,93.97
2018-04-16T10:37:10.114Z,92.14
2018-04-16T10:38:18.955Z,92.53
2018-04-16T10:39:27.845Z,93.49
2018-04-16T10:40:36.682Z,94.45
2018-04-16T10:41:45.520Z,93.2
2018-04-16T10:42:54.359Z,94.64
2018-04-16T10:44:03.480Z,90.8
2018-04-16T10:45:12.471Z,92.43
2018-04-16T10:46:21.312Z,95.31
2018-04-16T10:47:30.155Z,96.08
2018-04-16T10:48:39.269Z,92.67
2018-04-16T10:49:48.109Z,95.55
2018-04-16T10:50:56.999Z,97.19
2018-04-16T10:52:05.843Z,94.31
2018-04-16T10:53:14.683Z,95.75
2018-04-16T10:54:23.522Z,97.66
2018-04-16T10:55:32.384Z,95.84
2018-04-16T10:56:41.270Z,94.98
2018-04-16T10:57:50.439Z,93.92
2018-04-16T10:58:59.287Z,97.47
2018-04-16T11:00:08.415Z,96.8
2018-04-16T11:01:17.253Z,94.11
2018-04-16T11:02:26.143Z,94.21
2018-04-16T11:03:35.262Z,96.7
2018-04-16T11:04:44.381Z,96.13
2018-04-16T11:05:53.492Z,96.99
2018-04-16T11:07:02.336Z,96.61
2018-04-16T11:08:11.380Z,97.76
2018-04-16T11:09:20.224Z,98.43
2018-04-16T11:10:29.070Z,95.84
2018-04-16T11:11:37.909Z,95.26
2018-04-16T11:12:46.748Z,97.57
2018-04-16T11:13:55.813Z,96.8
2018-04-16T11:15:04.927Z,96.13
2018-04-16T11:16:13.769Z,97.38
2018-04-16T11:17:22.608Z,95.65
2018-04-16T11:18:31.449Z,95.31
2018-04-16T11:19:40.337Z,97.71
2018-04-16T11:20:49.175Z,96.61
2018-04-16T11:21:58.016Z,97.76
2018-04-16T11:23:06.864Z,95.6
2018-04-16T11:24:16.013Z,94.54
2018-04-16T11:25:25.364Z,95.03
2018-04-16T11:26:34.285Z,96.56
2018-04-16T11:27:43.172Z,95.31
2018-04-16T11:28:52.012Z,97.52
2018-04-16T11:30:01.129Z,97.71
2018-04-16T11:31:10.024Z,95.5
2018-04-16T11:32:18.893Z,95.12
2018-04-16T11:33:28.038Z,94.64
2018-04-16T11:34:36.881Z,94.88
2018-04-16T11:35:45.720Z,94.68
2018-04-16T11:36:54.616Z,96.13
2018-04-16T11:38:04.150Z,96.99
2018-04-16T11:39:13.005Z,93.91
2018-04-16T11:40:21.916Z,95.94
2018-04-16T11:41:31.246Z,94.88
2018-04-16T11:42:40.655Z,95.84
2018-04-16T11:43:49.582Z,95.17
2018-04-16T11:44:58.442Z,93.73
2018-04-16T11:46:07.285Z,93.63
2018-04-16T11:47:16.133Z,94.83
2018-04-16T11:48:25.407Z,95.07
2018-04-16T11:49:34.245Z,97.24
2018-04-16T11:50:43.090Z,97.09
2018-04-16T11:51:52.204Z,97.19
2018-04-16T11:53:01.047Z,97.47
2018-04-16T11:54:09.879Z,98.24
2018-04-16T11:55:18.724Z,96.42
2018-04-16T11:56:27.562Z,95.07
2018-04-16T11:57:36.394Z,95.55
2018-04-16T11:58:45.522Z,95.55
2018-04-16T11:59:54.692Z,95.84
2018-04-16T12:01:03.809Z,95.5
2018-04-16T12:02:12.665Z,95.6
2018-04-16T12:03:21.846Z,96.37
2018-04-16T12:04:30.715Z,97.04
2018-04-16T12:05:40.105Z,95.21
2018-04-16T12:06:48.944Z,96.75
2018-04-16T12:07:57.783Z,96.17
2018-04-16T12:09:06.622Z,96.61
2018-04-16T12:10:15.733Z,97.57
2018-04-16T12:11:24.874Z,99.3
2018-04-16T12:12:33.713Z,99.99
2018-04-16T12:13:42.551Z,99.99
2018-04-16T12:14:51.387Z,97.81
2018-04-16T12:16:00.226Z,94.12
2018-04-16T12:17:09.163Z,85.77
2018-04-16T12:18:18.003Z,71.59
2018-04-16T12:19:26.838Z,60.67
2018-04-16T12:20:35.673Z,51.82
2018-04-16T12:21:44.508Z,49.81
2018-04-16T12:22:53.495Z,46.53
2018-04-16T12:24:02.608Z,40.69
2018-04-16T12:25:11.445Z,44.52
2018-04-16T12:26:20.551Z,42.4
2018-04-16T12:27:29.386Z,42.58
2018-04-16T12:28:38.373Z,40.67
2018-04-16T12:29:47.225Z,37.59
2018-04-16T12:30:56.058Z,34.83
2018-04-16T12:32:05.172Z,36.84
2018-04-16T12:33:14.283Z,36.65
2018-04-16T12:34:23.595Z,34.16
2018-04-16T12:35:32.428Z,30.43
2018-04-16T12:36:41.535Z,31.29
2018-04-16T12:37:50.699Z,33.87
2018-04-16T12:38:59.535Z,32.82
2018-04-16T12:40:08.521Z,32.63
2018-04-16T12:41:17.631Z,32.63
2018-04-16T12:42:26.467Z,36.55
2018-04-16T12:43:35.302Z,34.64
2018-04-16T12:44:44.139Z,33.69
2018-04-16T12:45:53.025Z,31.1
2018-04-16T12:47:01.867Z,29.57
2018-04-16T12:48:10.983Z,26.51
2018-04-16T12:49:19.818Z,26.33
2018-04-16T12:50:28.934Z,26.52
2018-04-16T12:51:37.871Z,25.46
2018-04-16T12:52:46.712Z,22.98
2018-04-16T12:53:55.818Z,25.56
2018-04-16T12:55:04.657Z,26.71
2018-04-16T12:56:13.494Z,25.95
2018-04-16T12:57:22.651Z,28.05
2018-04-16T12:58:31.488Z,30.46
2018-04-16T12:59:40.326Z,28.45
2018-04-16T13:00:49.160Z,27.49
2018-04-16T13:01:58.000Z,31.8
2018-04-16T13:03:07.088Z,31.23
2018-04-16T13:04:16.199Z,27.39
2018-04-16T13:05:25.042Z,32.78
2018-04-16T13:06:33.880Z,22.81
2018-04-16T13:07:43.001Z,28.17
2018-04-16T13:08:52.657Z,36.82
2018-04-16T13:10:01.499Z,33.64
2018-04-16T13:11:10.341Z,35
2018-04-16T13:12:19.177Z,38.16
2018-04-16T13:13:28.017Z,41.71
2018-04-16T13:14:37.164Z,37.97
2018-04-16T13:15:46.285Z,40.17
2018-04-16T13:16:55.125Z,42.1
2018-04-16T13:18:03.964Z,38.35
2018-04-16T13:19:12.803Z,28.96
2018-04-16T13:20:21.892Z,51.2
2018-04-16T13:21:30.732Z,37.2
2018-04-16T13:22:39.572Z,40.37
2018-04-16T13:23:48.687Z,49.1
2018-04-16T13:24:57.523Z,44.3
2018-04-16T13:26:06.514Z,48.23
2018-04-16T13:27:15.630Z,48.23
2018-04-16T13:28:24.471Z,39.31
2018-04-16T13:29:33.316Z,68.27
2018-04-16T13:30:42.427Z,51.87
2018-04-16T13:31:51.650Z,56.29
2018-04-16T13:33:00.524Z,65.78
2018-04-16T13:34:09.608Z,56.86
2018-04-16T13:35:18.445Z,46.79
2018-04-16T13:36:27.295Z,63.19
2018-04-16T13:37:36.326Z,60.7
2018-04-16T13:38:45.163Z,74.02
2018-04-16T13:39:54.001Z,64.92
2018-04-16T13:41:02.842Z,47.08
2018-04-16T13:42:11.682Z,61.85
2018-04-16T13:43:20.570Z,61.3
2018-04-16T13:44:29.687Z,50.56
2018-04-16T13:45:38.811Z,62.74
2018-04-16T13:46:48.207Z,61.02
2018-04-16T13:47:57.050Z,55.07
2018-04-16T13:49:06.467Z,52.28
2018-04-16T13:50:15.304Z,49.69
2018-04-16T13:51:24.150Z,46.65
2018-04-16T13:52:33.280Z,60.92
2018-04-16T13:53:42.397Z,70.03
2018-04-16T13:54:51.235Z,52.57
2018-04-16T13:56:00.081Z,58.71
2018-04-16T13:57:08.921Z,62.74
2018-04-16T13:58:17.761Z,79.44
2018-04-16T13:59:26.607Z,54.58
2018-04-16T14:00:35.716Z,55.77
2018-04-16T14:01:44.555Z,69.68
2018-04-16T14:02:53.394Z,62.87
2018-04-16T14:04:02.237Z,82.54
2018-04-16T14:05:11.078Z,81.97
2018-04-16T14:06:19.917Z,69.2
2018-04-16T14:07:28.756Z,73.04
2018-04-16T14:08:37.598Z,77.94
2018-04-16T14:09:46.715Z,86.1
2018-04-16T14:10:55.555Z,85.52
2018-04-16T14:12:04.436Z,60.85
2018-04-16T14:13:13.244Z,63.09
2018-04-16T14:14:22.087Z,77.5
2018-04-16T14:15:30.975Z,73.94
2018-04-16T14:16:40.096Z,86.05
2018-04-16T14:17:49.225Z,91.33
2018-04-16T14:18:58.156Z,88.93
2018-04-16T14:20:08.033Z,91.42
2018-04-16T14:21:17.283Z,92.19
2018-04-16T14:22:27.272Z,92.81
2018-04-16T14:23:36.673Z,92.72
2018-04-16T14:24:45.603Z,82.63
2018-04-16T14:25:54.608Z,92.52
2018-04-16T14:27:03.771Z,91.18
2018-04-16T14:28:13.259Z,92.91
2018-04-16T14:29:22.448Z,74.65
2018-04-16T14:30:32.571Z,80.51
2018-04-16T14:31:42.058Z,80.8
2018-04-16T14:32:50.966Z,88.87
2018-04-16T14:34:00.348Z,83.97
2018-04-16T14:35:09.494Z,91.56
2018-04-16T14:36:18.692Z,94.35
2018-04-16T14:37:27.679Z,84.45
2018-04-16T14:38:38.407Z,95.12
2018-04-16T14:39:47.997Z,91.33
2018-04-16T14:40:56.882Z,89.16
